Hatfield, Minnesota
Current Conditions -  °F | °C
As of 11:14 AM on Thursday 30 Oct 2014 (Local Time) from KPQN Reporting Station
Clear Clear  
Wind Chill: 11°   Ceiling: Unl
Heat Index: 11°   Visibility: 10mi
Dew Point:   Wind: 10mph
Humidity: 50%   Direction: 30°NNE
Pressure: 30.06"   Gusts: NA
Location:  44.066°N, 96.3302°W
Report Text: KPQN 301614Z AUTO 03009KT 10SM CLR 11/01 A3006 RMK AO2
Loading
Personal Weather Stations






























Interactive Weather Map
Tropical Storm Tracking
New forecast layout! Learn more

10-Day Weather Forecast

Advertisements
Track Severe Weather on mobile